createdAt,value
2018-09-15T00:01:17.425Z,17.30
2018-09-15T00:03:48.209Z,17.17
2018-09-15T00:06:19.005Z,16.37
2018-09-15T00:08:55.342Z,17.30
2018-09-15T00:11:27.658Z,16.17
2018-09-15T00:14:03.974Z,15.17
2018-09-15T00:16:32.842Z,16.53
2018-09-15T00:19:01.735Z,16.97
2018-09-15T00:21:31.502Z,15.13
2018-09-15T00:24:00.322Z,14.27
2018-09-15T00:26:30.127Z,15.00
2018-09-15T00:29:09.002Z,15.17
2018-09-15T00:31:39.850Z,13.87
2018-09-15T00:34:14.099Z,13.20
2018-09-15T00:36:43.910Z,13.97
2018-09-15T00:39:12.958Z,13.40
2018-09-15T00:41:45.627Z,14.80
2018-09-15T00:44:37.637Z,14.67
2018-09-15T00:47:18.752Z,13.80
2018-09-15T00:49:54.453Z,14.27
2018-09-15T00:52:27.001Z,13.50
2018-09-15T00:55:12.749Z,16.07
2018-09-15T00:57:43.605Z,16.07
2018-09-15T01:00:13.429Z,16.23
2018-09-15T01:02:52.217Z,15.77
2018-09-15T01:05:22.100Z,17.77
2018-09-15T01:07:55.273Z,16.43
2018-09-15T01:10:24.051Z,17.80
2018-09-15T01:13:05.005Z,18.40
2018-09-15T01:15:56.285Z,16.97
2018-09-15T01:18:43.725Z,17.00
2018-09-15T01:21:28.050Z,15.90
2018-09-15T01:24:02.541Z,17.70
2018-09-15T01:26:36.337Z,16.90
2018-09-15T01:29:09.238Z,19.90
2018-09-15T01:31:37.969Z,19.00
2018-09-15T01:34:13.381Z,20.40
2018-09-15T01:36:42.169Z,23.93
2018-09-15T01:39:10.997Z,23.40
2018-09-15T01:41:49.997Z,23.83
2018-09-15T01:44:18.841Z,22.90
2018-09-15T01:46:55.557Z,25.10
2018-09-15T01:49:25.341Z,23.43
2018-09-15T01:51:58.125Z,23.50
2018-09-15T01:54:26.910Z,25.20
2018-09-15T01:57:05.750Z,24.70
2018-09-15T01:59:47.675Z,24.17
2018-09-15T02:02:19.982Z,21.30
2018-09-15T02:05:14.308Z,18.93
2018-09-15T02:07:56.637Z,15.20
2018-09-15T02:10:35.969Z,13.93
2018-09-15T02:15:59.449Z,13.37
2018-09-15T02:18:44.639Z,14.60
2018-09-15T02:21:13.485Z,15.30
2018-09-15T02:23:47.473Z,15.43
2018-09-15T02:26:28.078Z,14.80
2018-09-15T02:28:56.948Z,13.33
2018-09-15T02:31:38.786Z,13.47
2018-09-15T02:34:10.690Z,12.93
2018-09-15T02:36:58.553Z,12.80
2018-09-15T02:39:32.009Z,13.33
2018-09-15T02:42:11.418Z,15.53
2018-09-15T02:44:51.046Z,15.67
2018-09-15T02:47:30.285Z,15.63
2018-09-15T02:50:12.773Z,16.90
2018-09-15T02:52:41.642Z,15.80
2018-09-15T02:58:09.590Z,18.23
2018-09-15T03:01:00.763Z,18.57
2018-09-15T03:06:28.325Z,15.77
2018-09-15T03:09:02.754Z,17.67
2018-09-15T03:11:45.078Z,19.77
2018-09-15T03:14:14.862Z,20.07
2018-09-15T03:16:43.601Z,20.47
2018-09-15T03:22:11.719Z,20.60
2018-09-15T03:30:41.360Z,24.70
2018-09-15T03:33:15.074Z,24.80
2018-09-15T03:35:50.546Z,24.47
2018-09-15T03:38:31.498Z,24.40
2018-09-15T03:41:11.350Z,22.40
2018-09-15T03:43:40.122Z,25.00
2018-09-15T03:46:13.818Z,25.10
2018-09-15T03:48:47.618Z,24.47
2018-09-15T03:51:34.621Z,24.47
2018-09-15T03:54:03.417Z,23.87
2018-09-15T03:56:50.826Z,22.83
2018-09-15T03:59:32.386Z,21.93
2018-09-15T04:02:02.162Z,22.23
2018-09-15T04:04:31.958Z,22.70
2018-09-15T04:07:00.705Z,21.87
2018-09-15T04:09:56.201Z,22.57
2018-09-15T04:12:29.751Z,23.67
2018-09-15T04:14:58.534Z,25.70
2018-09-15T04:17:28.357Z,26.70
2018-09-15T04:19:58.238Z,28.37
2018-09-15T04:22:45.430Z,29.03
2018-09-15T04:25:28.907Z,30.90
2018-09-15T04:28:03.477Z,29.07
2018-09-15T04:30:37.986Z,29.23
2018-09-15T04:33:14.450Z,27.90
2018-09-15T04:38:47.361Z,26.57
2018-09-15T04:41:41.143Z,29.40
2018-09-15T04:44:13.973Z,28.10
2018-09-15T04:46:49.277Z,28.93
2018-09-15T04:52:12.105Z,25.67
2018-09-15T04:54:41.905Z,30.37
2018-09-15T04:57:14.604Z,28.17
2018-09-15T04:59:47.681Z,27.30
2018-09-15T05:05:12.090Z,30.13
2018-09-15T05:07:46.513Z,30.27
2018-09-15T05:10:18.645Z,30.30
2018-09-15T05:12:58.106Z,29.13
2018-09-15T05:15:30.401Z,28.10
2018-09-15T05:18:13.162Z,28.27
2018-09-15T05:24:00.066Z,27.30
2018-09-15T05:26:28.909Z,25.50
2018-09-15T05:29:14.575Z,26.93
2018-09-15T05:31:45.349Z,24.40
2018-09-15T05:34:14.182Z,28.17
2018-09-15T05:36:46.172Z,29.80
2018-09-15T05:39:14.989Z,29.47
2018-09-15T05:41:47.334Z,29.60
2018-09-15T05:44:24.474Z,28.27
2018-09-15T05:47:11.893Z,29.90
2018-09-15T05:49:41.625Z,28.87
2018-09-15T05:52:11.378Z,29.07
2018-09-15T05:54:40.150Z,30.43
2018-09-15T05:57:09.981Z,28.97
2018-09-15T05:59:56.922Z,29.07
2018-09-15T06:02:48.957Z,28.53
2018-09-15T06:05:17.799Z,28.80
2018-09-15T06:08:06.397Z,28.87
2018-09-15T06:13:43.824Z,26.87
2018-09-15T06:16:16.235Z,28.20
2018-09-15T06:18:59.009Z,24.00
2018-09-15T06:21:48.770Z,25.80
2018-09-15T06:24:17.622Z,23.73
2018-09-15T06:27:02.544Z,22.10
2018-09-15T06:32:31.002Z,21.63
2018-09-15T06:35:13.042Z,20.90
2018-09-15T06:37:42.801Z,20.77
2018-09-15T06:40:14.980Z,19.80
2018-09-15T06:42:55.244Z,18.20
2018-09-15T06:45:27.618Z,18.80
2018-09-15T06:47:56.383Z,19.00
2018-09-15T06:50:49.781Z,18.90
2018-09-15T06:53:18.621Z,18.10
2018-09-15T06:55:52.141Z,17.63
2018-09-15T06:58:20.913Z,16.83
2018-09-15T07:01:06.769Z,17.30
2018-09-15T07:03:57.968Z,16.77
2018-09-15T07:06:34.109Z,16.13
2018-09-15T07:09:10.721Z,14.43
2018-09-15T07:11:50.625Z,15.03
2018-09-15T07:17:26.830Z,14.90
2018-09-15T07:20:11.648Z,13.70
2018-09-15T07:22:40.421Z,13.10
2018-09-15T07:25:14.629Z,11.47
2018-09-15T07:30:55.669Z,11.30
2018-09-15T07:33:32.465Z,9.90
2018-09-15T07:36:01.293Z,10.53
2018-09-15T07:38:34.798Z,10.73
2018-09-15T07:41:09.120Z,10.00
2018-09-15T07:43:38.941Z,9.40
2018-09-15T07:46:17.665Z,8.80
2018-09-15T07:48:52.233Z,9.90
2018-09-15T07:51:21.993Z,9.17
2018-09-15T07:53:50.789Z,9.70
2018-09-15T07:56:20.574Z,8.50
2018-09-15T07:58:49.453Z,9.30
2018-09-15T08:01:38.977Z,8.10
2018-09-15T08:04:07.718Z,6.67
2018-09-15T08:06:36.541Z,7.77
2018-09-15T08:09:10.213Z,7.03
2018-09-15T08:11:39.012Z,6.40
2018-09-15T08:14:07.786Z,6.57
2018-09-15T08:16:36.574Z,5.97
2018-09-15T08:19:15.234Z,6.90
2018-09-15T08:22:01.666Z,6.00
2018-09-15T08:24:32.617Z,6.77
2018-09-15T08:27:21.438Z,6.00
2018-09-15T08:29:50.184Z,5.30
2018-09-15T08:32:21.959Z,4.60
2018-09-15T08:34:57.241Z,4.30
2018-09-15T08:37:31.501Z,5.03
2018-09-15T08:40:03.569Z,4.80
2018-09-15T08:42:32.367Z,4.60
2018-09-15T08:45:02.229Z,4.83
2018-09-15T08:47:41.537Z,4.33
2018-09-15T08:50:16.022Z,4.70
2018-09-15T08:52:48.813Z,4.47
2018-09-15T08:55:17.586Z,4.20
2018-09-15T08:57:54.231Z,4.40
2018-09-15T09:00:28.565Z,4.40
2018-09-15T09:03:06.961Z,4.40
2018-09-15T09:05:43.905Z,4.40
2018-09-15T09:08:12.674Z,4.10
2018-09-15T09:10:45.144Z,4.30
2018-09-15T09:13:20.409Z,4.13
2018-09-15T09:15:49.686Z,4.30
2018-09-15T09:18:19.437Z,3.90
2018-09-15T09:20:51.973Z,4.10
2018-09-15T09:23:36.877Z,4.53
2018-09-15T09:26:05.618Z,4.13
2018-09-15T09:28:42.705Z,3.70
2018-09-15T09:31:15.173Z,3.83
2018-09-15T09:33:43.945Z,4.20
2018-09-15T09:36:16.104Z,4.40
2018-09-15T09:38:51.281Z,4.13
2018-09-15T09:41:27.611Z,4.13
2018-09-15T09:44:16.749Z,4.30
2018-09-15T09:46:52.225Z,3.93
2018-09-15T09:49:28.672Z,3.90
2018-09-15T09:51:57.464Z,3.83
2018-09-15T09:54:44.436Z,4.00
2018-09-15T09:57:13.180Z,3.30
2018-09-15T09:59:52.237Z,3.60
2018-09-15T10:02:26.517Z,3.67
2018-09-15T10:04:58.375Z,4.40
2018-09-15T10:07:29.109Z,4.33
2018-09-15T10:10:04.240Z,4.17
2018-09-15T10:12:41.477Z,4.60
2018-09-15T10:15:15.957Z,3.63
2018-09-15T10:17:50.533Z,3.83
2018-09-15T10:20:39.090Z,3.60
2018-09-15T10:23:14.915Z,3.50
2018-09-15T10:26:02.605Z,3.93
2018-09-15T10:28:44.075Z,4.67
2018-09-15T10:34:10.649Z,3.63
2018-09-15T10:36:41.956Z,4.17
2018-09-15T10:39:12.744Z,4.03
2018-09-15T10:41:50.361Z,4.40
2018-09-15T10:44:42.005Z,3.80
2018-09-15T10:47:15.448Z,4.47
2018-09-15T10:49:46.281Z,4.30
2018-09-15T10:52:17.068Z,4.20
2018-09-15T10:54:55.672Z,5.40
2018-09-15T10:57:44.254Z,5.20
2018-09-15T11:00:14.055Z,5.07
2018-09-15T11:02:47.809Z,5.17
2018-09-15T11:05:19.769Z,4.20
2018-09-15T11:07:48.550Z,4.80
2018-09-15T11:10:25.485Z,5.10
2018-09-15T11:12:58.497Z,4.37
2018-09-15T11:15:30.605Z,4.63
2018-09-15T11:18:14.385Z,4.23
2018-09-15T11:20:46.209Z,5.43
2018-09-15T11:23:14.948Z,4.03
2018-09-15T11:25:55.312Z,4.77
2018-09-15T11:28:34.091Z,4.00
2018-09-15T11:31:11.141Z,3.80
2018-09-15T11:33:45.032Z,4.30
2018-09-15T11:36:15.769Z,3.93
2018-09-15T11:41:43.975Z,3.90
2018-09-15T11:44:17.305Z,3.60
2018-09-15T11:46:53.785Z,3.70
2018-09-15T11:49:22.617Z,3.77
2018-09-15T11:51:52.421Z,4.37
2018-09-15T11:54:23.161Z,3.60
2018-09-15T11:56:53.004Z,3.93
2018-09-15T11:59:34.928Z,4.50
2018-09-15T12:02:03.817Z,3.23
2018-09-15T12:04:32.545Z,3.60
2018-09-15T12:07:07.037Z,4.20
2018-09-15T12:09:43.057Z,4.23
2018-09-15T12:12:15.308Z,4.20
2018-09-15T12:15:03.483Z,4.00
2018-09-15T12:17:39.523Z,3.80
2018-09-15T12:20:08.300Z,3.73
2018-09-15T12:22:38.099Z,3.90
2018-09-15T12:25:15.121Z,4.37
2018-09-15T12:27:44.009Z,3.27
2018-09-15T12:30:22.732Z,4.20
2018-09-15T12:32:51.572Z,3.97
2018-09-15T12:35:43.440Z,3.53
2018-09-15T12:38:15.876Z,3.20
2018-09-15T12:40:51.321Z,3.20
2018-09-15T12:43:31.704Z,3.40
2018-09-15T12:46:15.409Z,2.90
2018-09-15T12:48:53.957Z,2.90
2018-09-15T12:51:22.733Z,3.87
2018-09-15T12:53:56.137Z,3.50
2018-09-15T12:56:25.913Z,3.27
2018-09-15T12:58:56.664Z,3.47
2018-09-15T13:04:33.829Z,3.50
2018-09-15T13:07:16.645Z,3.47
2018-09-15T13:09:51.657Z,3.20
2018-09-15T13:12:25.629Z,3.17
2018-09-15T13:14:58.404Z,4.10
2018-09-15T13:17:29.142Z,3.60
2018-09-15T13:20:00.993Z,2.87
2018-09-15T13:22:36.375Z,3.27
2018-09-15T13:25:16.277Z,3.20
2018-09-15T13:31:02.765Z,4.10
2018-09-15T13:33:32.525Z,3.30
2018-09-15T13:36:01.321Z,3.17
2018-09-15T13:38:44.501Z,3.97
2018-09-15T13:41:20.149Z,3.37
2018-09-15T13:43:53.776Z,3.60
2018-09-15T13:46:26.069Z,3.17
2018-09-15T13:51:48.800Z,3.70
2018-09-15T13:54:17.625Z,3.30
2018-09-15T13:57:07.432Z,3.20
2018-09-15T14:02:49.986Z,3.83
2018-09-15T14:05:18.790Z,3.20
2018-09-15T14:07:47.592Z,3.93
2018-09-15T14:10:19.016Z,3.47
2018-09-15T14:12:45.165Z,3.67
2018-09-15T14:15:17.893Z,3.40
2018-09-15T14:17:46.732Z,2.83
2018-09-15T14:20:16.541Z,2.57
2018-09-15T14:22:48.996Z,2.87
2018-09-15T14:25:17.809Z,2.80
2018-09-15T14:27:50.468Z,3.80
2018-09-15T14:30:20.296Z,3.30
2018-09-15T14:32:55.870Z,4.07
2018-09-15T14:38:25.700Z,3.30
2018-09-15T14:41:14.276Z,3.97
2018-09-15T14:43:43.108Z,3.23
2018-09-15T14:46:16.504Z,2.50
2018-09-15T14:48:49.388Z,2.70
2018-09-15T14:51:25.460Z,3.53
2018-09-15T14:53:59.251Z,3.00
2018-09-15T14:56:33.976Z,2.77
2018-09-15T14:59:04.708Z,2.90
2018-09-15T15:04:39.320Z,2.73
2018-09-15T15:07:10.116Z,2.70
2018-09-15T15:09:50.804Z,2.90
2018-09-15T15:12:19.548Z,3.30
2018-09-15T15:14:52.236Z,2.83
2018-09-15T15:17:27.686Z,3.07
2018-09-15T15:19:56.447Z,2.40
2018-09-15T15:22:27.196Z,2.90
2018-09-15T15:24:57.004Z,2.47
2018-09-15T15:27:45.608Z,3.00
2018-09-15T15:30:16.364Z,2.40
2018-09-15T15:33:02.891Z,2.50
2018-09-15T15:35:33.665Z,3.27
2018-09-15T15:38:08.935Z,2.43
2018-09-15T15:40:48.824Z,2.47
2018-09-15T15:43:19.607Z,2.93
2018-09-15T15:45:55.872Z,2.80
2018-09-15T15:51:31.926Z,2.77
2018-09-15T15:54:00.687Z,2.67
2018-09-15T15:56:41.716Z,3.23
2018-09-15T15:59:16.943Z,2.40
2018-09-15T16:01:47.821Z,3.10
2018-09-15T16:04:17.666Z,2.60
2018-09-15T16:06:52.401Z,2.77
2018-09-15T16:09:21.169Z,2.33
2018-09-15T16:14:50.828Z,3.03
2018-09-15T16:17:23.396Z,3.20
2018-09-15T16:20:03.884Z,3.07
2018-09-15T16:22:32.731Z,2.63
2018-09-15T16:27:59.432Z,2.60
2018-09-15T16:30:39.647Z,2.70
2018-09-15T16:33:23.110Z,2.70
2018-09-15T16:35:56.891Z,3.20
2018-09-15T16:38:27.712Z,2.63
2018-09-15T16:41:02.196Z,2.67
2018-09-15T16:43:43.560Z,2.87
2018-09-15T16:46:12.419Z,4.33
2018-09-15T16:48:41.212Z,3.10
2018-09-15T16:51:16.213Z,2.70
2018-09-15T16:53:56.519Z,2.63
2018-09-15T16:56:27.304Z,2.63
2018-09-15T16:58:57.100Z,3.33
2018-09-15T17:01:29.523Z,2.60
2018-09-15T17:03:59.303Z,2.70
2018-09-15T17:12:18.172Z,3.57
2018-09-15T17:14:58.360Z,4.47
2018-09-15T17:20:23.085Z,2.90
2018-09-15T17:22:57.524Z,3.00
2018-09-15T17:25:32.053Z,3.10
2018-09-15T17:28:01.493Z,3.93
2018-09-15T17:30:43.987Z,3.47
2018-09-15T17:33:13.752Z,3.17
2018-09-15T17:35:45.709Z,3.53
2018-09-15T17:38:15.491Z,3.13
2018-09-15T17:43:55.092Z,3.33
2018-09-15T17:46:23.824Z,3.20
2018-09-15T17:48:54.576Z,3.13
2018-09-15T17:51:30.892Z,2.97
2018-09-15T17:54:04.168Z,3.40
2018-09-15T17:56:38.864Z,3.40
2018-09-15T17:59:09.696Z,3.10
2018-09-15T18:01:55.440Z,2.80
2018-09-15T18:04:24.325Z,3.30
2018-09-15T18:06:53.192Z,3.80
2018-09-15T18:09:34.995Z,4.10
2018-09-15T18:12:16.905Z,4.23
2018-09-15T18:14:57.205Z,4.60
2018-09-15T18:17:26.036Z,3.60
2018-09-15T18:20:02.997Z,3.60
2018-09-15T18:22:38.821Z,3.73
2018-09-15T18:25:13.075Z,4.10
2018-09-15T18:27:53.568Z,3.60
2018-09-15T18:30:28.284Z,3.07
2018-09-15T18:32:57.175Z,2.90
2018-09-15T18:35:37.869Z,3.53
2018-09-15T18:38:16.743Z,3.30
2018-09-15T18:40:45.493Z,3.30
2018-09-15T18:43:19.103Z,2.97
2018-09-15T18:45:53.681Z,2.60
2018-09-15T18:48:22.536Z,4.00
2018-09-15T18:50:53.400Z,4.30
2018-09-15T18:53:22.232Z,4.63
2018-09-15T18:56:05.648Z,4.73
2018-09-15T18:58:36.436Z,4.30
2018-09-15T19:01:08.307Z,4.43
2018-09-15T19:03:45.668Z,4.67
2018-09-15T19:06:14.466Z,4.43
2018-09-15T19:08:51.252Z,3.93
2018-09-15T19:11:21.099Z,3.20
2018-09-15T19:13:50.832Z,3.70
2018-09-15T19:16:23.212Z,4.50
2018-09-15T19:19:04.171Z,4.63
2018-09-15T19:21:51.771Z,4.50
2018-09-15T19:24:28.119Z,3.40
2018-09-15T19:27:02.530Z,4.73
2018-09-15T19:29:41.859Z,4.60
2018-09-15T19:32:10.656Z,6.73
2018-09-15T19:34:39.415Z,7.80
2018-09-15T19:37:09.155Z,8.53
2018-09-15T19:39:42.516Z,8.20
2018-09-15T19:42:18.836Z,8.00
2018-09-15T19:44:53.675Z,6.43
2018-09-15T19:47:24.451Z,5.70
2018-09-15T19:50:06.651Z,5.07
2018-09-15T19:52:57.691Z,4.80
2018-09-15T19:55:33.768Z,4.73
2018-09-15T19:58:03.691Z,5.83
2018-09-15T20:00:40.096Z,5.93
2018-09-15T20:03:08.860Z,6.60
2018-09-15T20:05:39.675Z,7.40
2018-09-15T20:08:13.347Z,7.47
2018-09-15T20:10:54.136Z,7.00
2018-09-15T20:13:24.116Z,8.67
2018-09-15T20:16:02.124Z,6.80
2018-09-15T20:18:29.871Z,7.67
2018-09-15T20:20:58.604Z,8.83
2018-09-15T20:23:29.400Z,6.43
2018-09-15T20:26:03.328Z,8.53
2018-09-15T20:28:37.236Z,10.60
2018-09-15T20:34:02.467Z,7.63
2018-09-15T20:36:50.000Z,7.73
2018-09-15T20:39:26.207Z,8.00
2018-09-15T20:41:58.603Z,6.90
2018-09-15T20:44:39.356Z,6.73
2018-09-15T20:47:13.060Z,6.28
2018-09-15T20:49:52.500Z,7.77
2018-09-15T20:52:26.763Z,8.40
2018-09-15T20:54:55.513Z,9.15
2018-09-15T20:57:46.967Z,9.20
2018-09-15T21:00:15.824Z,8.48
2018-09-15T21:02:56.028Z,10.30
2018-09-15T21:05:25.795Z,7.90
2018-09-15T21:08:06.155Z,8.40
2018-09-15T21:10:59.475Z,8.38
2018-09-15T21:13:41.831Z,7.55
2018-09-15T21:16:16.395Z,9.15
2018-09-15T21:18:45.595Z,8.80
2018-09-15T21:21:25.795Z,7.83
2018-09-15T21:24:10.303Z,7.83
2018-09-15T21:26:48.555Z,7.92
2018-09-15T21:29:22.339Z,8.03
2018-09-15T21:31:53.195Z,7.00
2018-09-15T21:34:26.166Z,7.95
2018-09-15T21:36:56.027Z,7.80
2018-09-15T21:39:24.789Z,7.60
2018-09-15T21:41:59.348Z,8.33
2018-09-15T21:44:34.263Z,7.78
2018-09-15T21:47:03.108Z,7.67
2018-09-15T21:49:32.803Z,8.20
2018-09-15T21:52:03.563Z,7.90
2018-09-15T21:54:45.008Z,7.90
2018-09-15T21:57:14.777Z,7.95
2018-09-15T21:59:45.479Z,7.55
2018-09-15T22:02:21.751Z,7.65
2018-09-15T22:04:52.043Z,6.00
2018-09-15T22:07:22.891Z,6.75
2018-09-15T22:09:57.755Z,7.62
2018-09-15T22:12:26.527Z,7.20
2018-09-15T22:15:02.673Z,8.15
2018-09-15T22:17:34.879Z,7.42
2018-09-15T22:20:13.300Z,7.80
2018-09-15T22:22:46.935Z,6.92
2018-09-15T22:25:20.025Z,7.90
2018-09-15T22:27:52.851Z,7.70
2018-09-15T22:30:21.619Z,7.00
2018-09-15T22:32:56.107Z,8.05
2018-09-15T22:35:29.543Z,8.08
2018-09-15T22:37:58.351Z,7.70
2018-09-15T22:40:31.539Z,7.35
2018-09-15T22:43:10.290Z,7.15
2018-09-15T22:45:39.139Z,7.83
2018-09-15T22:48:10.030Z,6.92
2018-09-15T22:50:40.831Z,7.45
2018-09-15T22:53:12.755Z,7.78
2018-09-15T22:55:48.960Z,7.60
2018-09-15T22:58:17.735Z,7.72
2018-09-15T23:00:48.447Z,7.72
2018-09-15T23:03:27.964Z,7.15
2018-09-15T23:05:58.788Z,8.05
2018-09-15T23:08:28.539Z,7.10
2018-09-15T23:11:08.748Z,7.67
2018-09-15T23:13:38.548Z,7.70
2018-09-15T23:16:19.407Z,7.85
2018-09-15T23:18:48.176Z,7.03
2018-09-15T23:21:25.251Z,7.67
2018-09-15T23:23:55.053Z,7.17
2018-09-15T23:26:46.927Z,7.60
2018-09-15T23:29:17.715Z,7.40
2018-09-15T23:31:47.512Z,8.53
2018-09-15T23:34:17.407Z,7.33
2018-09-15T23:36:50.779Z,7.70
2018-09-15T23:39:19.503Z,7.80
2018-09-15T23:41:55.615Z,8.23
2018-09-15T23:44:24.379Z,8.75
2018-09-15T23:46:56.915Z,8.35
2018-09-15T23:49:27.679Z,8.08
2018-09-15T23:52:01.859Z,7.42
2018-09-15T23:54:32.915Z,7.75
2018-09-15T23:57:19.187Z,7.42
2018-09-15T23:59:48.287Z,8.18
